createdAt,value
2018-05-25T00:00:57.809Z,67.74
2018-05-25T00:03:23.699Z,68.39
2018-05-25T00:05:49.595Z,68.31
2018-05-25T00:08:15.498Z,68.44
2018-05-25T00:10:41.397Z,68.39
2018-05-25T00:13:07.328Z,68.17
2018-05-25T00:15:33.194Z,68.33
2018-05-25T00:17:59.094Z,68.15
2018-05-25T00:20:25.009Z,68.75
2018-05-25T00:22:50.916Z,68.51
2018-05-25T00:25:16.820Z,68.83
2018-05-25T00:27:42.689Z,68.28
2018-05-25T00:30:08.597Z,68.58
2018-05-25T00:32:34.487Z,68.51
2018-05-25T00:35:00.389Z,68.77
2018-05-25T00:37:26.276Z,68.59
2018-05-25T00:39:52.177Z,68.77
2018-05-25T00:42:18.066Z,68.79
2018-05-25T00:44:43.982Z,69.10
2018-05-25T00:47:09.881Z,68.72
2018-05-25T00:49:35.763Z,68.55
2018-05-25T00:52:01.706Z,68.76
2018-05-25T00:54:27.605Z,69.06
2018-05-25T00:56:53.621Z,69.83
2018-05-25T00:59:19.521Z,69.93
2018-05-25T01:01:45.421Z,70.25
2018-05-25T01:04:11.319Z,70.55
2018-05-25T01:06:37.161Z,71.04
2018-05-25T01:09:02.979Z,71.07
2018-05-25T01:11:28.771Z,71.30
2018-05-25T01:13:54.577Z,71.50
2018-05-25T01:16:20.357Z,72.03
2018-05-25T01:18:46.186Z,71.85
2018-05-25T01:21:11.969Z,71.95
2018-05-25T01:23:37.765Z,72.27
2018-05-25T01:26:03.598Z,72.44
2018-05-25T01:28:29.378Z,72.89
2018-05-25T01:30:55.182Z,72.95
2018-05-25T01:33:20.996Z,72.71
2018-05-25T01:35:46.787Z,72.95
2018-05-25T01:38:12.583Z,73.29
2018-05-25T01:40:38.385Z,73.29
2018-05-25T01:43:04.198Z,73.36
2018-05-25T01:45:29.977Z,73.34
2018-05-25T01:47:55.805Z,73.54
2018-05-25T01:50:21.591Z,73.80
2018-05-25T01:52:47.396Z,73.66
2018-05-25T01:55:13.181Z,73.99
2018-05-25T01:57:38.990Z,74.35
2018-05-25T02:00:04.805Z,74.34
2018-05-25T02:02:30.585Z,74.46
2018-05-25T02:04:56.380Z,74.73
2018-05-25T02:07:22.308Z,74.40
2018-05-25T02:09:48.090Z,74.64
2018-05-25T02:12:13.902Z,74.70
2018-05-25T02:14:39.712Z,74.84
2018-05-25T02:17:05.495Z,74.82
2018-05-25T02:19:31.302Z,75.05
2018-05-25T02:21:57.094Z,75.15
2018-05-25T02:24:22.890Z,75.45
2018-05-25T02:26:48.706Z,75.30
2018-05-25T02:29:14.497Z,75.25
2018-05-25T02:31:40.312Z,75.69
2018-05-25T02:34:06.105Z,75.81
2018-05-25T02:36:31.881Z,76.10
2018-05-25T02:38:57.677Z,75.83
2018-05-25T02:41:23.461Z,76.02
2018-05-25T02:43:49.569Z,76.15
2018-05-25T02:46:15.362Z,76.17
2018-05-25T02:48:41.183Z,76.70
2018-05-25T02:51:06.975Z,76.73
2018-05-25T02:53:32.769Z,76.83
2018-05-25T02:55:58.567Z,77.00
2018-05-25T02:58:24.406Z,76.93
2018-05-25T03:00:50.202Z,77.24
2018-05-25T03:03:16.025Z,76.95
2018-05-25T03:05:41.825Z,77.21
2018-05-25T03:08:07.618Z,77.23
2018-05-25T03:10:33.442Z,77.24
2018-05-25T03:12:59.285Z,77.36
2018-05-25T03:15:25.098Z,77.57
2018-05-25T03:17:50.892Z,78.08
2018-05-25T03:20:16.696Z,77.89
2018-05-25T03:22:42.649Z,77.76
2018-05-25T03:27:34.140Z,77.69
2018-05-25T03:29:59.944Z,78.11
2018-05-25T03:32:25.840Z,78.15
2018-05-25T03:34:51.633Z,78.25
2018-05-25T03:37:17.428Z,78.33
2018-05-25T03:39:43.208Z,78.24
2018-05-25T03:42:09.020Z,78.17
2018-05-25T03:44:34.824Z,78.31
2018-05-25T03:47:00.618Z,78.61
2018-05-25T03:49:26.420Z,78.68
2018-05-25T03:51:52.231Z,78.61
2018-05-25T03:54:18.081Z,78.68
2018-05-25T03:56:43.864Z,78.50
2018-05-25T04:02:07.732Z,78.62
2018-05-25T04:04:33.538Z,78.68
2018-05-25T04:06:59.314Z,78.65
2018-05-25T04:09:25.133Z,78.93
2018-05-25T04:11:50.921Z,78.76
2018-05-25T04:14:16.726Z,78.48
2018-05-25T04:16:42.812Z,78.53
2018-05-25T04:19:08.615Z,78.34
2018-05-25T04:21:34.397Z,78.50
2018-05-25T04:24:00.217Z,78.50
2018-05-25T04:26:26.009Z,78.34
2018-05-25T04:28:51.806Z,78.28
2018-05-25T04:31:17.621Z,77.92
2018-05-25T04:33:43.401Z,78.10
2018-05-25T04:36:09.321Z,77.62
2018-05-25T04:38:35.115Z,77.56
2018-05-25T04:41:00.923Z,77.55
2018-05-25T04:43:26.733Z,77.39
2018-05-25T04:45:52.531Z,77.19
2018-05-25T04:48:18.318Z,77.45
2018-05-25T04:50:44.126Z,77.44
2018-05-25T04:53:09.951Z,76.99
2018-05-25T04:55:35.741Z,77.20
2018-05-25T04:58:01.521Z,76.96
2018-05-25T05:00:27.363Z,76.72
2018-05-25T05:02:53.174Z,76.38
2018-05-25T05:05:18.958Z,76.51
2018-05-25T05:07:44.766Z,76.23
2018-05-25T05:10:10.570Z,76.04
2018-05-25T05:12:36.369Z,75.69
2018-05-25T05:15:02.225Z,75.58
2018-05-25T05:17:28.038Z,75.41
2018-05-25T05:19:53.829Z,75.17
2018-05-25T05:22:19.624Z,74.93
2018-05-25T05:24:45.455Z,74.92
2018-05-25T05:27:11.254Z,74.47
2018-05-25T05:29:37.047Z,74.50
2018-05-25T05:32:02.873Z,74.18
2018-05-25T05:34:28.675Z,73.92
2018-05-25T05:36:54.475Z,73.94
2018-05-25T05:39:20.258Z,73.64
2018-05-25T05:41:46.066Z,73.01
2018-05-25T05:44:11.866Z,72.93
2018-05-25T05:46:37.673Z,72.42
2018-05-25T05:49:03.493Z,72.44
2018-05-25T05:51:29.296Z,72.30
2018-05-25T05:53:55.080Z,72.04
2018-05-25T05:56:20.886Z,71.85
2018-05-25T05:58:46.718Z,71.61
2018-05-25T06:01:12.525Z,71.53
2018-05-25T06:03:38.331Z,71.20
2018-05-25T06:06:04.130Z,71.40
2018-05-25T06:08:29.923Z,71.08
2018-05-25T06:10:56.087Z,70.76
2018-05-25T06:13:22.727Z,71.03
2018-05-25T06:15:48.585Z,70.15
2018-05-25T06:18:14.411Z,69.51
2018-05-25T06:20:40.204Z,68.95
2018-05-25T06:23:05.991Z,68.64
2018-05-25T06:25:31.905Z,68.46
2018-05-25T06:27:57.706Z,67.99
2018-05-25T06:30:23.505Z,67.79
2018-05-25T06:32:49.393Z,67.78
2018-05-25T06:35:15.215Z,68.25
2018-05-25T06:37:40.993Z,68.02
2018-05-25T06:40:06.797Z,67.70
2018-05-25T06:42:32.592Z,66.67
2018-05-25T06:44:58.386Z,66.86
2018-05-25T06:47:24.180Z,66.74
2018-05-25T06:49:50.306Z,65.91
2018-05-25T06:52:16.097Z,65.73
2018-05-25T06:54:41.898Z,65.43
2018-05-25T06:57:07.738Z,65.60
2018-05-25T06:59:33.520Z,65.12
2018-05-25T07:01:59.565Z,64.45
2018-05-25T07:04:25.881Z,64.19
2018-05-25T07:06:51.944Z,63.97
2018-05-25T07:09:18.206Z,63.07
2018-05-25T07:11:44.586Z,63.62
2018-05-25T07:14:10.846Z,63.49
2018-05-25T07:16:36.847Z,63.23
2018-05-25T07:19:02.658Z,62.82
2018-05-25T07:21:29.286Z,62.58
2018-05-25T07:23:55.139Z,61.85
2018-05-25T07:26:20.932Z,62.10
2018-05-25T07:28:53.773Z,61.74
2018-05-25T07:31:19.587Z,61.62
2018-05-25T07:33:45.397Z,61.67
2018-05-25T07:36:11.181Z,61.10
2018-05-25T07:38:36.965Z,60.97
2018-05-25T07:41:02.802Z,61.24
2018-05-25T07:43:28.596Z,60.45
2018-05-25T07:45:54.419Z,60.36
2018-05-25T07:48:20.203Z,60.72
2018-05-25T07:50:45.993Z,60.28
2018-05-25T07:53:12.159Z,60.26
2018-05-25T07:55:37.989Z,60.63
2018-05-25T07:58:03.781Z,59.47
2018-05-25T08:00:29.885Z,59.77
2018-05-25T08:02:55.691Z,58.95
2018-05-25T08:05:21.468Z,58.76
2018-05-25T08:07:47.245Z,58.51
2018-05-25T08:10:13.049Z,58.54
2018-05-25T08:12:38.834Z,57.72
2018-05-25T08:15:04.616Z,57.78
2018-05-25T08:17:30.436Z,57.86
2018-05-25T08:19:56.225Z,57.68
2018-05-25T08:22:22.013Z,57.56
2018-05-25T08:24:47.822Z,57.83
2018-05-25T08:27:14.133Z,56.53
2018-05-25T08:29:39.949Z,56.96
2018-05-25T08:32:05.755Z,56.54
2018-05-25T08:34:37.792Z,56.63
2018-05-25T08:37:03.585Z,56.64
2018-05-25T08:39:29.377Z,56.56
2018-05-25T08:41:55.185Z,56.07
2018-05-25T08:44:20.986Z,56.03
2018-05-25T08:46:46.794Z,55.75
2018-05-25T08:49:12.619Z,54.15
2018-05-25T08:51:38.409Z,53.41
2018-05-25T08:54:04.187Z,53.39
2018-05-25T08:56:29.974Z,53.91
2018-05-25T08:58:55.748Z,53.75
2018-05-25T09:01:21.814Z,53.30
2018-05-25T09:03:47.634Z,52.80
2018-05-25T09:06:13.426Z,52.24
2018-05-25T09:08:39.249Z,51.45
2018-05-25T09:11:05.054Z,52.01
2018-05-25T09:13:30.832Z,52.06
2018-05-25T09:15:56.643Z,51.64
2018-05-25T09:18:22.418Z,50.50
2018-05-25T09:20:48.230Z,50.67
2018-05-25T09:23:14.030Z,50.75
2018-05-25T09:25:39.843Z,50.34
2018-05-25T09:28:05.647Z,49.61
2018-05-25T09:30:31.506Z,48.78
2018-05-25T09:32:57.287Z,48.66
2018-05-25T09:35:23.082Z,48.77
2018-05-25T09:37:48.886Z,48.65
2018-05-25T09:40:14.761Z,48.05
2018-05-25T09:42:40.592Z,47.57
2018-05-25T09:45:06.564Z,47.70
2018-05-25T09:47:32.543Z,47.36
2018-05-25T09:49:59.361Z,46.92
2018-05-25T09:52:25.230Z,47.00
2018-05-25T09:54:51.105Z,45.83
2018-05-25T09:57:16.919Z,44.93
2018-05-25T09:59:42.745Z,45.20
2018-05-25T10:02:08.567Z,44.45
2018-05-25T10:04:34.364Z,44.13
2018-05-25T10:07:00.189Z,43.89
2018-05-25T10:09:25.993Z,44.17
2018-05-25T10:11:51.797Z,43.64
2018-05-25T10:14:17.597Z,43.43
2018-05-25T10:16:43.379Z,43.04
2018-05-25T10:19:09.191Z,42.31
2018-05-25T10:21:35.255Z,42.53
2018-05-25T10:24:01.055Z,41.93
2018-05-25T10:26:26.875Z,41.51
2018-05-25T10:28:52.702Z,41.79
2018-05-25T10:31:18.490Z,41.04
2018-05-25T10:33:44.284Z,41.04
2018-05-25T10:36:10.114Z,41.37
2018-05-25T10:38:35.921Z,40.76
2018-05-25T10:41:01.755Z,40.48
2018-05-25T10:43:27.845Z,39.79
2018-05-25T10:45:53.631Z,39.74
2018-05-25T10:48:19.415Z,39.65
2018-05-25T10:50:45.217Z,39.90
2018-05-25T10:53:11.016Z,39.23
2018-05-25T10:55:37.111Z,40.23
2018-05-25T10:58:02.918Z,38.61
2018-05-25T11:00:28.717Z,39.23
2018-05-25T11:02:54.771Z,39.08
2018-05-25T11:05:20.583Z,39.19
2018-05-25T11:07:46.401Z,38.15
2018-05-25T11:10:12.235Z,37.77
2018-05-25T11:12:38.026Z,38.99
2018-05-25T11:15:03.847Z,38.99
2018-05-25T11:17:29.997Z,39.65
2018-05-25T11:19:55.795Z,39.60
2018-05-25T11:22:21.624Z,38.71
2018-05-25T11:24:47.457Z,38.59
2018-05-25T11:27:13.254Z,39.82
2018-05-25T11:29:39.045Z,39.79
2018-05-25T11:32:04.903Z,39.80
2018-05-25T11:34:30.685Z,40.65
2018-05-25T11:36:56.497Z,37.43
2018-05-25T11:39:22.361Z,37.80
2018-05-25T11:41:48.161Z,38.19
2018-05-25T11:44:13.997Z,38.40
2018-05-25T11:46:39.811Z,38.61
2018-05-25T11:49:05.619Z,38.46
2018-05-25T11:51:31.431Z,38.44
2018-05-25T11:53:57.249Z,38.11
2018-05-25T11:56:23.046Z,38.27
2018-05-25T11:58:48.842Z,39.16
2018-05-25T12:01:14.829Z,38.74
2018-05-25T12:03:40.652Z,38.00
2018-05-25T12:06:06.492Z,37.75
2018-05-25T12:08:32.326Z,37.03
2018-05-25T12:10:58.115Z,36.48
2018-05-25T12:13:23.938Z,38.25
2018-05-25T12:15:50.065Z,39.02
2018-05-25T12:18:15.846Z,38.86
2018-05-25T12:20:41.660Z,39.27
2018-05-25T12:23:07.459Z,39.77
2018-05-25T12:25:33.253Z,39.20
2018-05-25T12:27:59.072Z,38.64
2018-05-25T12:30:24.889Z,39.74
2018-05-25T12:32:50.689Z,40.25
2018-05-25T12:35:16.491Z,39.32
2018-05-25T12:37:42.294Z,38.82
2018-05-25T12:40:08.094Z,39.21
2018-05-25T12:42:33.900Z,38.40
2018-05-25T12:45:11.897Z,37.87
2018-05-25T12:47:37.689Z,36.79
2018-05-25T12:50:03.521Z,36.72
2018-05-25T12:52:29.327Z,38.12
2018-05-25T12:54:55.188Z,38.52
2018-05-25T12:57:20.970Z,38.51
2018-05-25T12:59:46.784Z,37.60
2018-05-25T13:02:12.579Z,37.28
2018-05-25T13:04:38.374Z,36.87
2018-05-25T13:07:04.205Z,37.05
2018-05-25T13:09:30.005Z,37.17
2018-05-25T13:11:55.781Z,36.64
2018-05-25T13:14:21.584Z,35.23
2018-05-25T13:16:47.375Z,35.11
2018-05-25T13:19:13.160Z,35.24
2018-05-25T13:21:38.947Z,35.39
2018-05-25T13:24:04.754Z,35.90
2018-05-25T13:26:30.577Z,34.65
2018-05-25T13:28:56.354Z,35.53
2018-05-25T13:31:22.169Z,34.16
2018-05-25T13:33:47.961Z,34.26
2018-05-25T13:36:13.753Z,33.83
2018-05-25T13:38:40.049Z,34.72
2018-05-25T13:41:05.874Z,34.98
2018-05-25T13:43:31.680Z,34.46
2018-05-25T13:45:57.468Z,34.31
2018-05-25T13:48:23.265Z,34.73
2018-05-25T13:50:49.054Z,34.59
2018-05-25T13:53:14.902Z,34.77
2018-05-25T13:55:40.700Z,34.25
2018-05-25T13:58:06.481Z,34.05
2018-05-25T14:00:32.325Z,34.12
2018-05-25T14:02:58.114Z,34.11
2018-05-25T14:05:23.899Z,33.71
2018-05-25T14:07:49.972Z,34.13
2018-05-25T14:10:15.775Z,34.40
2018-05-25T14:12:41.580Z,34.42
2018-05-25T14:15:07.393Z,34.04
2018-05-25T14:17:33.315Z,34.46
2018-05-25T14:19:59.473Z,34.44
2018-05-25T14:22:25.261Z,34.77
2018-05-25T14:24:51.037Z,34.63
2018-05-25T14:27:16.852Z,34.74
2018-05-25T14:29:42.645Z,34.97
2018-05-25T14:32:08.458Z,35.20
2018-05-25T14:34:34.296Z,36.41
2018-05-25T14:37:00.102Z,35.42
2018-05-25T14:39:25.934Z,35.55
2018-05-25T14:41:51.775Z,35.17
2018-05-25T14:44:17.571Z,36.21
2018-05-25T14:46:43.361Z,35.91
2018-05-25T14:49:09.192Z,35.66
2018-05-25T14:51:35.123Z,36.15
2018-05-25T14:54:01.006Z,37.08
2018-05-25T14:56:26.761Z,36.91
2018-05-25T14:58:52.555Z,36.31
2018-05-25T15:01:18.347Z,36.46
2018-05-25T15:03:44.141Z,37.76
2018-05-25T15:06:09.957Z,37.40
2018-05-25T15:08:35.769Z,38.08
2018-05-25T15:11:02.051Z,38.15
2018-05-25T15:13:27.875Z,37.82
2018-05-25T15:15:53.699Z,38.05
2018-05-25T15:18:19.500Z,37.90
2018-05-25T15:20:45.306Z,38.47
2018-05-25T15:23:11.577Z,37.37
2018-05-25T15:25:37.380Z,37.66
2018-05-25T15:28:03.219Z,37.38
2018-05-25T15:30:29.666Z,37.24
2018-05-25T15:32:55.466Z,36.90
2018-05-25T15:35:21.366Z,36.91
2018-05-25T15:37:47.817Z,36.60
2018-05-25T15:40:13.617Z,36.69
2018-05-25T15:42:39.434Z,36.21
2018-05-25T15:45:05.634Z,37.16
2018-05-25T15:47:31.587Z,35.77
2018-05-25T15:49:57.451Z,35.77
2018-05-25T15:52:23.323Z,34.17
2018-05-25T15:54:49.122Z,34.48
2018-05-25T15:57:14.963Z,34.16
2018-05-25T15:59:40.818Z,35.22
2018-05-25T16:02:06.642Z,35.12
2018-05-25T16:04:32.458Z,35.07
2018-05-25T16:06:58.262Z,34.30
2018-05-25T16:09:24.081Z,34.81
2018-05-25T16:11:49.874Z,33.01
2018-05-25T16:14:15.697Z,32.32
2018-05-25T16:16:41.485Z,32.17
2018-05-25T16:19:07.269Z,31.85
2018-05-25T16:21:33.174Z,32.46
2018-05-25T16:23:58.990Z,31.76
2018-05-25T16:26:24.778Z,32.57
2018-05-25T16:28:50.645Z,32.24
2018-05-25T16:31:16.398Z,33.25
2018-05-25T16:33:42.177Z,33.81
2018-05-25T16:36:07.978Z,35.20
2018-05-25T16:38:33.793Z,35.99
2018-05-25T16:40:59.889Z,37.06
2018-05-25T16:43:25.814Z,38.00
2018-05-25T16:45:51.623Z,39.29
2018-05-25T16:48:17.476Z,40.51
2018-05-25T16:50:43.484Z,41.32
2018-05-25T16:53:09.291Z,41.86
2018-05-25T16:55:35.075Z,42.63
2018-05-25T16:58:00.874Z,43.00
2018-05-25T17:00:26.693Z,43.32
2018-05-25T17:02:52.474Z,43.93
2018-05-25T17:05:18.603Z,44.46
2018-05-25T17:07:44.409Z,45.06
2018-05-25T17:10:10.198Z,44.77
2018-05-25T17:12:36.076Z,45.26
2018-05-25T17:15:01.834Z,45.12
2018-05-25T17:17:27.633Z,45.12
2018-05-25T17:19:53.439Z,45.28
2018-05-25T17:22:19.238Z,45.48
2018-05-25T17:24:45.043Z,45.59
2018-05-25T17:27:10.854Z,45.63
2018-05-25T17:29:36.671Z,46.18
2018-05-25T17:32:02.470Z,46.49
2018-05-25T17:34:28.281Z,46.23
2018-05-25T17:36:54.071Z,46.72
2018-05-25T17:39:19.856Z,47.15
2018-05-25T17:41:45.662Z,47.86
2018-05-25T17:44:11.472Z,48.50
2018-05-25T17:46:37.264Z,49.62
2018-05-25T17:49:03.104Z,50.57
2018-05-25T17:51:29.255Z,51.43
2018-05-25T17:53:55.051Z,51.72
2018-05-25T17:56:20.841Z,52.26
2018-05-25T17:58:46.666Z,52.52
2018-05-25T18:01:12.445Z,52.87
2018-05-25T18:03:38.259Z,53.00
2018-05-25T18:06:04.065Z,53.05
2018-05-25T18:08:29.849Z,53.43
2018-05-25T18:10:55.666Z,53.54
2018-05-25T18:13:21.460Z,53.66
2018-05-25T18:15:47.263Z,53.59
2018-05-25T18:18:13.097Z,53.88
2018-05-25T18:20:38.919Z,54.24
2018-05-25T18:23:04.717Z,54.11
2018-05-25T18:25:30.531Z,54.30
2018-05-25T18:27:56.327Z,54.49
2018-05-25T18:30:22.129Z,54.71
2018-05-25T18:32:47.945Z,55.29
2018-05-25T18:35:13.741Z,55.32
2018-05-25T18:37:39.518Z,56.34
2018-05-25T18:40:05.302Z,56.89
2018-05-25T18:42:31.446Z,56.53
2018-05-25T18:44:57.279Z,57.11
2018-05-25T18:47:23.065Z,57.34
2018-05-25T18:49:48.857Z,57.11
2018-05-25T18:52:14.645Z,57.61
2018-05-25T18:54:40.443Z,57.52
2018-05-25T18:57:06.282Z,57.70
2018-05-25T18:59:32.077Z,57.34
2018-05-25T19:01:57.890Z,58.04
2018-05-25T19:04:23.690Z,58.25
2018-05-25T19:06:49.485Z,58.40
2018-05-25T19:09:15.281Z,59.07
2018-05-25T19:11:41.119Z,59.10
2018-05-25T19:14:06.905Z,58.97
2018-05-25T19:16:32.704Z,59.22
2018-05-25T19:18:58.521Z,59.40
2018-05-25T19:21:24.298Z,59.71
2018-05-25T19:23:50.081Z,59.99
2018-05-25T19:26:15.889Z,59.88
2018-05-25T19:28:41.699Z,60.26
2018-05-25T19:31:07.589Z,60.33
2018-05-25T19:33:33.385Z,60.18
2018-05-25T19:35:59.163Z,60.43
2018-05-25T19:38:24.994Z,60.64
2018-05-25T19:40:50.792Z,60.55
2018-05-25T19:45:54.552Z,62.36
2018-05-25T19:48:20.355Z,62.37
2018-05-25T19:50:46.146Z,62.23
2018-05-25T19:53:12.158Z,62.73
2018-05-25T19:55:37.940Z,62.49
2018-05-25T19:58:03.757Z,62.55
2018-05-25T20:00:29.585Z,63.25
2018-05-25T20:02:55.366Z,62.68
2018-05-25T20:05:21.173Z,62.80
2018-05-25T20:07:47.273Z,63.17
2018-05-25T20:10:13.068Z,63.39
2018-05-25T20:12:38.867Z,63.40
2018-05-25T20:15:04.698Z,62.88
2018-05-25T20:17:30.515Z,63.21
2018-05-25T20:19:56.294Z,63.35
2018-05-25T20:22:22.135Z,63.32
2018-05-25T20:24:47.923Z,63.64
2018-05-25T20:27:13.702Z,63.22
2018-05-25T20:29:39.519Z,63.12
2018-05-25T20:32:05.304Z,62.92
2018-05-25T20:34:31.085Z,63.17
2018-05-25T20:36:57.651Z,63.89
2018-05-25T20:39:23.435Z,63.62
2018-05-25T20:41:49.236Z,63.57
2018-05-25T20:44:15.073Z,63.55
2018-05-25T20:46:40.861Z,63.76
2018-05-25T20:49:06.678Z,63.50
2018-05-25T20:51:32.470Z,63.39
2018-05-25T20:53:58.279Z,63.80
2018-05-25T20:56:24.059Z,63.61
2018-05-25T20:58:49.857Z,64.16
2018-05-25T21:01:15.641Z,64.22
2018-05-25T21:03:41.446Z,65.01
2018-05-25T21:06:07.239Z,64.65
2018-05-25T21:08:33.058Z,64.29
2018-05-25T21:10:58.873Z,64.72
2018-05-25T21:13:24.674Z,64.82
2018-05-25T21:15:50.494Z,65.26
2018-05-25T21:18:16.282Z,65.77
2018-05-25T21:20:42.091Z,65.58
2018-05-25T21:23:07.877Z,66.26
2018-05-25T21:25:33.678Z,66.78
2018-05-25T21:27:59.490Z,67.14
2018-05-25T21:30:25.275Z,67.23
2018-05-25T21:32:51.096Z,67.25
2018-05-25T21:35:16.934Z,67.88
2018-05-25T21:37:42.721Z,68.01
2018-05-25T21:40:08.529Z,67.95
2018-05-25T21:42:34.318Z,67.97
2018-05-25T21:45:00.123Z,68.08
2018-05-25T21:47:25.926Z,68.67
2018-05-25T21:49:51.746Z,68.59
2018-05-25T21:52:17.548Z,69.30
2018-05-25T21:54:43.335Z,69.50
2018-05-25T21:57:09.148Z,70.45
2018-05-25T21:59:34.934Z,71.13
2018-05-25T22:02:00.735Z,72.18
2018-05-25T22:04:26.667Z,71.96
2018-05-25T22:06:52.581Z,72.12
2018-05-25T22:09:18.375Z,74.17
2018-05-25T22:11:44.213Z,74.05
2018-05-25T22:14:09.994Z,74.18
2018-05-25T22:16:35.872Z,75.24
2018-05-25T22:19:01.585Z,74.93
2018-05-25T22:21:27.494Z,75.57
2018-05-25T22:23:53.295Z,75.62
2018-05-25T22:26:19.085Z,76.87
2018-05-25T22:28:44.926Z,76.27
2018-05-25T22:31:10.736Z,76.98
2018-05-25T22:33:36.518Z,77.71
2018-05-25T22:36:02.325Z,77.55
2018-05-25T22:38:28.109Z,76.96
2018-05-25T22:40:53.908Z,77.74
2018-05-25T22:43:32.256Z,78.71
2018-05-25T22:46:10.330Z,78.90
2018-05-25T22:48:48.537Z,78.72
2018-05-25T22:51:26.623Z,79.67
2018-05-25T22:53:58.460Z,80.29
2018-05-25T22:56:24.275Z,80.98
2018-05-25T22:58:50.069Z,81.11
2018-05-25T23:01:15.878Z,81.34
2018-05-25T23:03:41.685Z,81.63
2018-05-25T23:06:07.477Z,82.79
2018-05-25T23:08:33.318Z,82.75
2018-05-25T23:10:59.530Z,82.56
2018-05-25T23:13:25.686Z,82.87
2018-05-25T23:15:51.533Z,82.11
2018-05-25T23:18:17.305Z,80.65
2018-05-25T23:20:43.313Z,79.99
2018-05-25T23:23:09.154Z,81.81
2018-05-25T23:25:34.950Z,81.39
2018-05-25T23:28:00.741Z,83.03
2018-05-25T23:30:26.530Z,82.95
2018-05-25T23:32:52.340Z,83.04
2018-05-25T23:35:18.154Z,83.32
2018-05-25T23:37:43.973Z,83.73
2018-05-25T23:40:09.755Z,84.61
2018-05-25T23:42:36.318Z,83.92
2018-05-25T23:45:02.131Z,83.95
2018-05-25T23:47:28.221Z,86.09
2018-05-25T23:49:54.004Z,84.86
2018-05-25T23:52:20.014Z,85.09
2018-05-25T23:54:45.814Z,85.35
2018-05-25T23:57:11.605Z,85.30
2018-05-25T23:59:37.574Z,84.10
